createdAt,value
2023-03-23T15:58:13.205Z,93331.39
2023-03-23T15:58:47.213Z,93336.37
2023-03-23T15:59:20.789Z,93330.96
2023-03-23T15:59:54.497Z,93330.59
2023-03-23T16:00:29.856Z,93336.76
2023-03-23T16:01:08.513Z,93332.96
2023-03-23T16:01:43.741Z,93331.42
2023-03-23T16:02:24.277Z,93332.29
2023-03-23T16:03:02.410Z,93338.23
2023-03-23T16:03:59.127Z,93336.45
2023-03-23T16:04:33.830Z,93338.75
2023-03-23T16:05:15.213Z,93335.98
2023-03-23T16:05:48.843Z,93332.79
2023-03-23T16:06:25.738Z,93334.31
2023-03-23T16:07:01.286Z,93337.23
2023-03-23T16:07:38.574Z,93338.91
2023-03-23T16:08:12.312Z,93336.70
2023-03-23T16:08:54.618Z,93340.48
2023-03-23T16:09:28.655Z,93340.63
2023-03-23T16:10:03.856Z,93337.58
2023-03-23T16:10:38.224Z,93337.73
2023-03-23T16:11:14.218Z,93338.21
2023-03-23T16:11:48.517Z,93342.63
2023-03-23T16:12:22.304Z,93343.64
2023-03-23T16:12:56.186Z,93339.64
2023-03-23T16:13:35.408Z,93343.60
2023-03-23T16:14:11.592Z,93342.00
2023-03-23T16:14:45.151Z,93344.38
2023-03-23T16:15:19.444Z,93345.02
2023-03-23T16:15:53.272Z,93344.54
2023-03-23T16:16:30.144Z,93346.38
2023-03-23T16:17:04.061Z,93346.36
2023-03-23T16:17:46.926Z,93346.63
2023-03-23T16:18:22.813Z,93344.25
2023-03-23T16:18:56.496Z,93343.46
2023-03-23T16:19:33.330Z,93346.13
2023-03-23T16:20:14.161Z,93347.34
2023-03-23T16:20:51.119Z,93348.35
2023-03-23T16:21:24.923Z,93347.02
2023-03-23T16:21:58.506Z,93349.52
2023-03-23T16:22:32.073Z,93352.40
2023-03-23T16:23:08.442Z,93349.91
2023-03-23T16:23:44.871Z,93352.68
2023-03-23T16:24:19.356Z,93355.16
2023-03-23T16:24:55.392Z,93351.98
2023-03-23T16:25:35.224Z,93356.71
2023-03-23T16:26:08.950Z,93354.80
2023-03-23T16:26:42.832Z,93349.13
2023-03-23T16:27:21.715Z,93350.84
2023-03-23T16:27:55.288Z,93352.36
2023-03-23T16:28:28.847Z,93355.50
2023-03-23T16:29:13.877Z,93353.77
2023-03-23T16:30:03.040Z,93353.70
2023-03-23T16:30:38.519Z,93355.34
2023-03-23T16:31:14.614Z,93348.65
2023-03-23T16:31:48.209Z,93354.17
2023-03-23T16:32:21.759Z,93354.20
2023-03-23T16:32:57.627Z,93353.05
2023-03-23T16:33:31.686Z,93351.00
2023-03-23T16:34:05.211Z,93352.02
2023-03-23T16:34:39.171Z,93349.38
2023-03-23T16:35:14.146Z,93351.67
2023-03-23T16:35:48.082Z,93352.17
2023-03-23T16:36:22.015Z,93357.69
2023-03-23T16:36:56.440Z,93357.31
2023-03-23T16:37:34.022Z,93356.85
2023-03-23T16:38:09.246Z,93354.13
2023-03-23T16:38:49.126Z,93357.95
2023-03-23T16:39:24.755Z,93360.80
2023-03-23T16:39:58.221Z,93360.77
2023-03-23T16:40:31.992Z,93357.05
2023-03-23T16:41:05.809Z,93360.90
2023-03-23T16:41:41.308Z,93360.38
2023-03-23T16:42:17.952Z,93359.83
2023-03-23T16:42:51.754Z,93357.83
2023-03-23T16:43:25.552Z,93359.01
2023-03-23T16:44:01.499Z,93356.69
2023-03-23T16:44:34.982Z,93360.08
2023-03-23T16:45:10.032Z,93363.36
2023-03-23T16:46:02.690Z,93361.88
2023-03-23T16:46:36.640Z,93366.27
2023-03-23T16:47:10.204Z,93359.27
2023-03-23T16:47:44.637Z,93363.22
2023-03-23T16:48:18.245Z,93360.38
2023-03-23T16:48:51.790Z,93358.63
2023-03-23T16:49:26.579Z,93357.44
2023-03-23T16:50:00.194Z,93354.54
2023-03-23T16:50:37.510Z,93355.98
2023-03-23T16:51:11.189Z,93358.02
2023-03-23T16:51:44.811Z,93355.71
2023-03-23T16:52:19.161Z,93354.60
2023-03-23T16:52:53.009Z,93361.82
2023-03-23T16:53:26.595Z,93360.74
2023-03-23T16:54:00.045Z,93360.04
2023-03-23T16:54:33.469Z,93356.73
2023-03-23T16:55:08.583Z,93361.95
2023-03-23T16:55:48.643Z,93358.57
2023-03-23T16:56:51.363Z,93357.02
2023-03-23T16:58:13.031Z,93360.27
2023-03-23T16:59:07.199Z,93360.60
2023-03-23T16:59:46.656Z,93360.35
2023-03-23T17:00:47.122Z,93357.54
2023-03-23T17:01:32.112Z,93356.38
2023-03-23T17:02:05.822Z,93356.46
2023-03-23T17:02:42.521Z,93353.51
2023-03-23T17:03:17.813Z,93357.65
2023-03-23T17:03:54.581Z,93356.18
2023-03-23T17:04:32.156Z,93348.16
2023-03-23T17:05:06.153Z,93353.48
2023-03-23T17:05:40.523Z,93354.54
2023-03-23T17:06:14.297Z,93354.46
2023-03-23T17:06:48.147Z,93354.85
2023-03-23T17:07:21.752Z,93353.19
2023-03-23T17:07:56.176Z,93352.59
2023-03-23T17:08:29.768Z,93346.98
2023-03-23T17:09:03.515Z,93352.88
2023-03-23T17:09:37.528Z,93354.14
2023-03-23T17:10:11.902Z,93353.16
2023-03-23T17:10:46.198Z,93356.10
2023-03-23T17:11:22.099Z,93356.02
2023-03-23T17:11:55.954Z,93359.38
2023-03-23T17:12:31.969Z,93361.23
2023-03-23T17:13:05.564Z,93361.39
2023-03-23T17:13:39.144Z,93361.21
2023-03-23T17:14:14.912Z,93363.40
2023-03-23T17:14:54.211Z,93363.56
2023-03-23T17:15:27.817Z,93366.11
2023-03-23T17:16:01.304Z,93368.30
2023-03-23T17:16:34.878Z,93367.74
2023-03-23T17:17:11.772Z,93368.41
2023-03-23T17:17:45.596Z,93368.30
2023-03-23T17:18:19.041Z,93365.63
2023-03-23T17:18:52.559Z,93369.20
2023-03-23T17:19:26.583Z,93368.15
2023-03-23T17:20:00.222Z,93366.34
2023-03-23T17:20:35.392Z,93369.09
2023-03-23T17:21:08.883Z,93374.22
2023-03-23T17:21:43.091Z,93377.48
2023-03-23T17:22:17.063Z,93379.58
2023-03-23T17:22:51.433Z,93378.96
2023-03-23T17:23:25.088Z,93378.36
2023-03-23T17:23:59.292Z,93366.16
2023-03-23T17:24:33.314Z,93379.79
2023-03-23T17:25:09.473Z,93382.19
2023-03-23T17:25:45.667Z,93377.79
2023-03-23T17:26:19.589Z,93376.56
2023-03-23T17:26:54.693Z,93378.23
2023-03-23T17:28:07.221Z,93367.08
2023-03-23T17:28:41.329Z,93376.94
2023-03-23T17:29:15.098Z,93384.36
2023-03-23T17:29:48.829Z,93384.60
2023-03-23T17:30:22.567Z,93384.71
2023-03-23T17:30:56.400Z,93384.00
2023-03-23T17:31:30.076Z,93380.88
2023-03-23T17:32:03.660Z,93379.38
2023-03-23T17:32:37.707Z,93384.25
2023-03-23T17:33:12.634Z,93383.56
2023-03-23T17:33:46.332Z,93386.77
2023-03-23T17:34:19.959Z,93386.42
2023-03-23T17:34:54.110Z,93381.00
2023-03-23T17:35:27.649Z,93383.87
2023-03-23T17:36:01.230Z,93385.21
2023-03-23T17:36:34.932Z,93382.66
2023-03-23T17:37:11.046Z,93382.34
2023-03-23T17:37:44.870Z,93381.30
2023-03-23T17:38:18.667Z,93381.98
2023-03-23T17:38:52.331Z,93380.98
2023-03-23T17:39:26.244Z,93385.17
2023-03-23T17:39:59.897Z,93379.98
2023-03-23T17:40:33.403Z,93384.08
2023-03-23T17:41:08.702Z,93380.21
2023-03-23T17:41:42.599Z,93381.65
2023-03-23T17:42:16.397Z,93380.08
2023-03-23T17:42:50.017Z,93381.94
2023-03-23T17:43:23.487Z,93376.98
2023-03-23T17:43:57.085Z,93375.65
2023-03-23T17:44:39.851Z,93374.98
2023-03-23T17:45:13.379Z,93375.60
2023-03-23T17:45:47.427Z,93376.91
2023-03-23T17:46:21.315Z,93376.22
2023-03-23T17:46:56.672Z,93377.04
2023-03-23T17:47:30.384Z,93378.92
2023-03-23T17:48:08.184Z,93377.33
2023-03-23T17:48:42.468Z,93379.38
2023-03-23T17:49:16.066Z,93382.69
2023-03-23T17:49:49.739Z,93382.16
2023-03-23T17:50:23.604Z,93382.05
2023-03-23T17:51:02.463Z,93385.79
2023-03-23T17:51:36.273Z,93388.98
2023-03-23T17:52:10.028Z,93388.89
2023-03-23T17:52:43.917Z,93390.00
2023-03-23T17:53:19.074Z,93391.58
2023-03-23T17:53:52.589Z,93390.64
2023-03-23T17:54:26.844Z,93391.88
2023-03-23T17:55:00.583Z,93390.78
2023-03-23T17:55:34.124Z,93392.73
2023-03-23T17:56:08.302Z,93394.63
2023-03-23T17:56:41.918Z,93391.88
2023-03-23T17:57:15.867Z,93396.48
2023-03-23T17:57:49.446Z,93396.08
2023-03-23T17:58:25.365Z,93395.98
2023-03-23T17:58:58.924Z,93398.80
2023-03-23T17:59:32.456Z,93398.55
2023-03-23T18:00:09.490Z,93397.33
2023-03-23T18:00:42.897Z,93400.61
2023-03-23T18:01:16.859Z,93399.41
2023-03-23T18:01:50.660Z,93399.52
2023-03-23T18:02:24.401Z,93399.66
2023-03-23T18:02:58.269Z,93397.73
2023-03-23T18:03:32.431Z,93400.20
2023-03-23T18:04:06.429Z,93401.41
2023-03-23T18:04:48.788Z,93401.92
2023-03-23T18:05:28.089Z,93403.31
2023-03-23T18:06:05.331Z,93405.29
2023-03-23T18:06:38.906Z,93404.61
2023-03-23T18:07:14.181Z,93402.88
2023-03-23T18:07:48.060Z,93404.27
2023-03-23T18:08:22.014Z,93407.08
2023-03-23T18:08:55.547Z,93407.77
2023-03-23T18:09:29.038Z,93404.29
2023-03-23T18:10:02.632Z,93404.41
2023-03-23T18:10:38.935Z,93404.73
2023-03-23T18:11:12.571Z,93406.17
2023-03-23T18:11:46.046Z,93408.52
2023-03-23T18:12:19.640Z,93409.29
2023-03-23T18:12:53.677Z,93409.20
2023-03-23T18:13:29.165Z,93408.35
2023-03-23T18:14:03.244Z,93408.89
2023-03-23T18:14:39.216Z,93409.21
2023-03-23T18:15:13.323Z,93408.88
2023-03-23T18:15:47.146Z,93410.49
2023-03-23T18:16:24.493Z,93409.23
2023-03-23T18:16:58.539Z,93408.54
2023-03-23T18:17:35.565Z,93409.34
2023-03-23T18:18:10.551Z,93411.17
2023-03-23T18:18:46.719Z,93410.39
2023-03-23T18:19:37.159Z,93403.14
2023-03-23T18:20:25.760Z,93410.70
2023-03-23T18:21:16.896Z,93406.88
2023-03-23T18:22:16.701Z,93406.58
2023-03-23T18:23:00.292Z,93408.70
2023-03-23T18:23:59.576Z,93410.51
2023-03-23T18:25:00.165Z,93408.66
2023-03-23T18:25:44.397Z,93415.66
2023-03-23T18:26:28.377Z,93417.03
2023-03-23T18:27:09.120Z,93416.37
2023-03-23T18:28:22.015Z,93417.14
2023-03-23T18:29:06.157Z,93423.46
2023-03-23T18:30:09.911Z,93420.56
2023-03-23T18:31:14.023Z,93417.96
2023-03-23T18:32:11.956Z,93423.21
2023-03-23T18:32:53.832Z,93423.70
2023-03-23T18:33:36.887Z,93414.50
2023-03-23T18:34:14.725Z,93422.70
2023-03-23T18:35:32.216Z,93421.56
2023-03-23T18:36:23.068Z,93424.56
2023-03-23T18:37:06.727Z,93426.77
2023-03-23T18:37:51.825Z,93414.67
2023-03-23T18:38:34.239Z,93427.91
2023-03-23T18:39:13.847Z,93427.05
2023-03-23T18:39:59.486Z,93428.85
2023-03-23T18:40:34.224Z,93431.46
2023-03-23T18:41:13.934Z,93430.41
2023-03-23T18:41:57.792Z,93433.02
2023-03-23T18:42:34.314Z,93431.95
2023-03-23T18:43:11.724Z,93433.55
2023-03-23T18:43:46.464Z,93431.52
2023-03-23T18:44:26.298Z,93435.36
2023-03-23T18:45:02.262Z,93432.45
2023-03-23T18:45:57.627Z,93434.59
2023-03-23T18:46:39.239Z,93437.44
2023-03-23T18:47:18.792Z,93435.59
2023-03-23T18:48:01.562Z,93435.41
2023-03-23T18:48:49.321Z,93428.02
2023-03-23T18:49:32.178Z,93432.45
2023-03-23T18:50:12.407Z,93435.39
2023-03-23T18:51:01.309Z,93435.88
2023-03-23T18:51:40.433Z,93438.27
2023-03-23T18:52:24.580Z,93437.12
2023-03-23T18:53:03.899Z,93438.29
2023-03-23T18:53:49.693Z,93435.03
2023-03-23T18:54:26.720Z,93426.23
2023-03-23T18:55:04.588Z,93436.73
2023-03-23T18:55:38.910Z,93434.58
2023-03-23T18:56:19.869Z,93437.48
2023-03-23T18:57:00.401Z,93436.33
2023-03-23T18:57:46.571Z,93426.48
2023-03-23T18:58:28.315Z,93434.96
2023-03-23T18:59:06.675Z,93433.08
2023-03-23T18:59:43.310Z,93438.29
2023-03-23T19:00:24.389Z,93438.39
2023-03-23T19:01:03.323Z,93438.13
2023-03-23T19:01:40.114Z,93439.55
2023-03-23T19:02:14.740Z,93436.44
2023-03-23T19:02:51.915Z,93436.02
2023-03-23T19:03:26.322Z,93429.51
2023-03-23T19:04:00.455Z,93437.96
2023-03-23T19:04:34.565Z,93421.14
2023-03-23T19:05:13.661Z,93435.16
2023-03-23T19:05:48.720Z,93435.23
2023-03-23T19:06:25.119Z,93437.34
2023-03-23T19:07:03.677Z,93434.95
2023-03-23T19:07:38.695Z,93439.73
2023-03-23T19:08:15.562Z,93437.88
2023-03-23T19:08:50.367Z,93435.48
2023-03-23T19:09:25.844Z,93443.73
2023-03-23T19:09:59.907Z,93440.03
2023-03-23T19:10:37.873Z,93438.76
2023-03-23T19:11:11.716Z,93438.89
2023-03-23T19:11:47.420Z,93438.85
2023-03-23T19:12:22.576Z,93443.12
2023-03-23T19:12:56.622Z,93441.27
2023-03-23T19:13:31.647Z,93443.06
2023-03-23T19:14:07.004Z,93442.48
2023-03-23T19:14:43.999Z,93441.84
2023-03-23T19:15:18.081Z,93439.37
2023-03-23T19:15:53.221Z,93439.79
2023-03-23T19:16:27.044Z,93436.83
2023-03-23T19:17:00.865Z,93434.74
2023-03-23T19:17:36.641Z,93442.29
2023-03-23T19:18:10.400Z,93441.45
2023-03-23T19:18:44.039Z,93439.80
2023-03-23T19:19:17.605Z,93439.55
2023-03-23T19:19:52.539Z,93440.36
2023-03-23T19:20:58.366Z,93439.33
2023-03-23T19:21:24.910Z,93448.00
2023-03-23T19:22:00.141Z,93442.80
2023-03-23T19:22:33.869Z,93446.23
2023-03-23T19:23:08.158Z,93443.39
2023-03-23T19:23:41.975Z,93444.48
2023-03-23T19:24:18.173Z,93443.88
2023-03-23T19:24:52.548Z,93445.41
2023-03-23T19:25:27.053Z,93445.38
2023-03-23T19:26:00.778Z,93446.18
2023-03-23T19:28:38.453Z,93450.99
2023-03-23T19:29:23.026Z,93453.67
2023-03-23T19:29:44.183Z,93450.96
2023-03-23T19:30:27.545Z,93448.86
2023-03-23T19:31:12.191Z,93447.33
2023-03-23T19:31:47.424Z,93451.46
2023-03-23T19:32:27.596Z,93451.20
2023-03-23T19:33:08.888Z,93450.30
2023-03-23T19:33:43.928Z,93452.68
2023-03-23T19:34:24.425Z,93455.71
2023-03-23T19:34:59.201Z,93452.98
2023-03-23T19:35:36.053Z,93453.23
2023-03-23T19:36:13.205Z,93453.23
2023-03-23T19:36:54.205Z,93454.77
2023-03-23T19:37:34.374Z,93454.70
2023-03-23T19:38:13.557Z,93447.30
2023-03-23T19:38:58.351Z,93454.21
2023-03-23T19:39:37.164Z,93445.48
2023-03-23T19:40:31.671Z,93456.44
2023-03-23T19:41:32.328Z,93456.81
2023-03-23T19:42:35.555Z,93456.54
2023-03-23T19:43:13.995Z,93456.74
2023-03-23T19:43:52.335Z,93455.76
2023-03-23T19:44:38.801Z,93456.02
2023-03-23T19:45:12.706Z,93457.02
2023-03-23T19:45:48.026Z,93459.81
2023-03-23T19:46:31.467Z,93456.29
2023-03-23T19:47:24.992Z,93456.34
2023-03-23T19:48:54.826Z,93458.61
2023-03-23T19:49:34.072Z,93460.30
2023-03-23T19:50:24.684Z,93457.02
2023-03-23T19:51:02.404Z,93462.54
2023-03-23T19:51:38.536Z,93460.19
2023-03-23T19:52:22.653Z,93462.89
2023-03-23T19:53:01.846Z,93461.20
2023-03-23T19:53:37.469Z,93448.48
2023-03-23T19:54:13.613Z,93460.77
2023-03-23T19:54:47.772Z,93460.34
2023-03-23T19:55:22.689Z,93464.67
2023-03-23T19:56:03.639Z,93465.80
2023-03-23T19:56:43.902Z,93463.86
2023-03-23T19:57:27.418Z,93461.34
2023-03-23T19:58:07.471Z,93461.02
2023-03-23T19:58:41.774Z,93458.40
2023-03-23T19:59:18.832Z,93459.87
2023-03-23T19:59:53.465Z,93462.86
2023-03-23T20:00:36.124Z,93464.27
2023-03-23T20:01:14.101Z,93460.36
2023-03-23T20:01:53.037Z,93461.40
2023-03-23T20:02:26.959Z,93456.10
2023-03-23T20:03:04.623Z,93463.47
2023-03-23T20:03:41.341Z,93464.73
2023-03-23T20:04:19.045Z,93467.58
2023-03-23T20:04:52.683Z,93464.94
2023-03-23T20:05:53.419Z,93462.13
2023-03-23T20:06:29.785Z,93464.44
2023-03-23T20:07:13.160Z,93465.89
2023-03-23T20:07:51.522Z,93465.70
2023-03-23T20:09:12.150Z,93466.48
2023-03-23T20:09:48.861Z,93462.73
2023-03-23T20:10:24.667Z,93463.20
2023-03-23T20:11:09.048Z,93460.58
2023-03-23T20:11:50.199Z,93463.52
2023-03-23T20:12:26.167Z,93464.05
2023-03-23T20:13:10.166Z,93462.08
2023-03-23T20:13:57.000Z,93463.35
2023-03-23T20:14:40.936Z,93461.72
2023-03-23T20:15:15.200Z,93450.59
2023-03-23T20:16:04.892Z,93461.23
2023-03-23T20:16:42.657Z,93455.01
2023-03-23T20:17:21.924Z,93463.02
2023-03-23T20:18:09.786Z,93458.16
2023-03-23T20:18:59.970Z,93459.95
2023-03-23T20:19:36.468Z,93460.54
2023-03-23T20:20:11.204Z,93461.13
2023-03-23T20:20:44.933Z,93459.65
2023-03-23T20:21:22.340Z,93460.86
2023-03-23T20:21:58.478Z,93463.32
2023-03-23T20:22:32.279Z,93461.32
2023-03-23T20:23:08.129Z,93457.79
2023-03-23T20:23:43.421Z,93462.70
2023-03-23T20:24:17.326Z,93460.70
2023-03-23T20:24:51.796Z,93456.71
2023-03-23T20:25:26.388Z,93461.62
2023-03-23T20:26:12.346Z,93460.52
2023-03-23T20:26:47.629Z,93461.72
2023-03-23T20:27:26.769Z,93461.04
2023-03-23T20:28:06.534Z,93463.73
2023-03-23T20:28:42.747Z,93454.85
2023-03-23T20:29:16.528Z,93465.36
2023-03-23T20:29:53.917Z,93467.63
2023-03-23T20:30:27.394Z,93471.40
2023-03-23T20:31:16.829Z,93467.76
2023-03-23T20:31:58.103Z,93466.70
2023-03-23T20:32:34.984Z,93464.48
2023-03-23T20:33:09.652Z,93465.17
2023-03-23T20:33:44.806Z,93461.89
2023-03-23T20:34:29.430Z,93448.49
2023-03-23T20:35:09.522Z,93464.90
2023-03-23T20:35:43.425Z,93461.41
2023-03-23T20:36:20.185Z,93462.20
2023-03-23T20:36:54.862Z,93461.58
2023-03-23T20:37:31.337Z,93463.74
2023-03-23T20:38:05.987Z,93465.69
2023-03-23T20:38:41.906Z,93465.58
2023-03-23T20:39:21.666Z,93467.86
2023-03-23T20:39:55.657Z,93466.27
2023-03-23T20:40:29.720Z,93465.42
2023-03-23T20:41:06.435Z,93466.38
2023-03-23T20:41:40.570Z,93464.80
2023-03-23T20:42:14.906Z,93465.42
2023-03-23T20:42:49.286Z,93460.58
2023-03-23T20:43:29.378Z,93462.31
2023-03-23T20:44:04.345Z,93460.98
2023-03-23T20:44:39.700Z,93461.92
2023-03-23T20:45:14.363Z,93455.06
2023-03-23T20:45:48.021Z,93456.48
2023-03-23T20:46:26.015Z,93459.10
2023-03-23T20:46:59.918Z,93458.03
2023-03-23T20:47:33.541Z,93458.90
2023-03-23T20:48:07.121Z,93459.43
2023-03-23T20:48:41.389Z,93459.02
2023-03-23T20:49:16.128Z,93458.85
2023-03-23T20:49:53.180Z,93455.58
2023-03-23T20:50:27.540Z,93457.90
2023-03-23T20:51:03.474Z,93457.21
2023-03-23T20:51:37.859Z,93455.84
2023-03-23T20:52:12.601Z,93457.42
2023-03-23T20:52:46.444Z,93455.27
2023-03-23T20:53:20.640Z,93455.80
2023-03-23T20:53:54.986Z,93459.91
2023-03-23T20:54:28.540Z,93461.07
2023-03-23T20:55:02.787Z,93455.32
2023-03-23T20:55:36.621Z,93456.84
2023-03-23T20:56:11.061Z,93457.48
2023-03-23T20:56:45.250Z,93456.69
2023-03-23T20:57:19.486Z,93459.49
2023-03-23T20:57:52.958Z,93453.39
2023-03-23T20:58:28.128Z,93454.77
2023-03-23T20:59:02.726Z,93456.97
2023-03-23T20:59:36.620Z,93455.44
2023-03-23T21:00:15.496Z,93454.66
2023-03-23T21:00:51.588Z,93453.82
2023-03-23T21:01:26.379Z,93456.46
2023-03-23T21:02:00.011Z,93456.51
2023-03-23T21:02:34.491Z,93455.29
2023-03-23T21:03:11.602Z,93454.14
2023-03-23T21:03:45.759Z,93441.09
2023-03-23T21:04:23.139Z,93455.20
2023-03-23T21:04:58.369Z,93451.18
2023-03-23T21:05:32.027Z,93451.70
2023-03-23T21:06:09.411Z,93451.02
2023-03-23T21:06:44.505Z,93446.76
2023-03-23T21:07:18.408Z,93452.19
2023-03-23T21:07:52.933Z,93432.17
2023-03-23T21:08:26.814Z,93449.59
2023-03-23T21:09:00.561Z,93449.65
2023-03-23T21:09:35.058Z,93443.58
2023-03-23T21:10:08.896Z,93437.36
2023-03-23T21:10:43.651Z,93442.36
2023-03-23T21:11:20.037Z,93438.45
2023-03-23T21:11:54.216Z,93439.77
2023-03-23T21:12:27.980Z,93435.81
2023-03-23T21:13:01.512Z,93438.99
2023-03-23T21:13:35.632Z,93438.27
2023-03-23T21:14:10.150Z,93446.35
2023-03-23T21:14:45.170Z,93444.25
2023-03-23T21:15:18.918Z,93446.24
2023-03-23T21:15:53.615Z,93445.94
2023-03-23T21:16:27.588Z,93445.35
2023-03-23T21:17:01.894Z,93443.03
2023-03-23T21:17:35.936Z,93436.89
2023-03-23T21:18:11.024Z,93440.01
2023-03-23T21:18:45.318Z,93440.90
2023-03-23T21:19:19.786Z,93433.27
2023-03-23T21:19:53.814Z,93434.79
2023-03-23T21:20:27.534Z,93439.42
2023-03-23T21:21:01.756Z,93432.37
2023-03-23T21:21:35.550Z,93435.64
2023-03-23T21:22:09.994Z,93433.06
2023-03-23T21:22:43.534Z,93435.28
2023-03-23T21:23:19.748Z,93432.08
2023-03-23T21:23:53.698Z,93435.98
2023-03-23T21:24:29.926Z,93436.98
2023-03-23T21:25:03.961Z,93436.33
2023-03-23T21:25:44.805Z,93440.39
2023-03-23T21:26:21.028Z,93430.04
2023-03-23T21:26:56.952Z,93441.77
2023-03-23T21:27:31.101Z,93443.83
2023-03-23T21:28:07.183Z,93439.51
2023-03-23T21:28:40.919Z,93441.02
2023-03-23T21:29:15.775Z,93441.98
2023-03-23T21:29:49.405Z,93440.95
2023-03-23T21:30:23.246Z,93441.60
2023-03-23T21:31:03.762Z,93439.20
2023-03-23T21:31:38.314Z,93437.58
2023-03-23T21:32:12.082Z,93436.05
2023-03-23T21:32:45.840Z,93438.95
2023-03-23T21:33:20.302Z,93442.38
2023-03-23T21:33:53.929Z,93441.81
2023-03-23T21:34:28.074Z,93446.14
2023-03-23T21:35:03.091Z,93440.06
2023-03-23T21:35:37.034Z,93440.55
2023-03-23T21:36:13.330Z,93442.23
2023-03-23T21:36:46.944Z,93439.30
2023-03-23T21:37:21.006Z,93438.45
2023-03-23T21:37:54.505Z,93439.45
2023-03-23T21:38:29.100Z,93439.52
2023-03-23T21:39:04.711Z,93441.46
2023-03-23T21:39:38.397Z,93440.48
2023-03-23T21:40:14.940Z,93442.29
2023-03-23T21:40:48.942Z,93441.86
2023-03-23T21:41:23.201Z,93442.71
2023-03-23T21:41:56.767Z,93442.14
2023-03-23T21:42:30.695Z,93444.45
2023-03-23T21:43:04.538Z,93448.47
2023-03-23T21:43:40.986Z,93447.46
2023-03-23T21:44:15.455Z,93447.85
2023-03-23T21:44:51.490Z,93446.54
2023-03-23T21:45:25.893Z,93447.11
2023-03-23T21:46:03.172Z,93449.65
2023-03-23T21:46:40.890Z,93447.70
2023-03-23T21:47:14.497Z,93450.96
2023-03-23T21:47:51.805Z,93448.75
2023-03-23T21:48:28.046Z,93450.29
2023-03-23T21:49:01.686Z,93452.98
2023-03-23T21:49:36.090Z,93442.24
2023-03-23T21:50:15.471Z,93449.47
2023-03-23T21:50:49.635Z,93450.27
2023-03-23T21:51:25.571Z,93448.46
2023-03-23T21:51:59.221Z,93450.30
2023-03-23T21:52:33.647Z,93444.84
2023-03-23T21:53:07.278Z,93445.69
2023-03-23T21:53:44.603Z,93448.70
2023-03-23T21:54:18.288Z,93449.75
2023-03-23T21:54:54.524Z,93449.42
2023-03-23T21:55:29.849Z,93451.55
2023-03-23T21:56:05.533Z,93450.33
2023-03-23T21:56:39.834Z,93447.21
2023-03-23T21:57:13.550Z,93449.84
2023-03-23T21:57:47.420Z,93446.63
2023-03-23T21:58:24.416Z,93446.20
2023-03-23T21:58:58.113Z,93444.52
2023-03-23T21:59:31.696Z,93445.30
2023-03-23T22:00:08.521Z,93441.09
2023-03-23T22:00:42.336Z,93444.77
2023-03-23T22:01:19.161Z,93445.88
2023-03-23T22:01:54.079Z,93443.03
2023-03-23T22:02:27.712Z,93447.05
2023-03-23T22:03:02.957Z,93443.98
2023-03-23T22:03:37.733Z,93444.77
2023-03-23T22:04:11.768Z,93443.93
2023-03-23T22:04:45.618Z,93443.19
2023-03-23T22:05:20.529Z,93434.25
2023-03-23T22:05:54.868Z,93441.61
2023-03-23T22:06:29.165Z,93439.21
2023-03-23T22:07:02.733Z,93438.36
2023-03-23T22:07:39.284Z,93420.79
2023-03-23T22:08:12.963Z,93436.09
2023-03-23T22:08:47.377Z,93434.56
2023-03-23T22:09:21.060Z,93421.92
2023-03-23T22:09:54.869Z,93433.60
2023-03-23T22:10:28.599Z,93430.12
2023-03-23T22:11:06.176Z,93432.50
2023-03-23T22:11:42.014Z,93433.03
2023-03-23T22:12:15.910Z,93431.76
2023-03-23T22:12:53.687Z,93428.53
2023-03-23T22:13:32.734Z,93428.57
2023-03-23T22:14:07.415Z,93428.17
2023-03-23T22:14:41.105Z,93424.98
2023-03-23T22:15:15.497Z,93426.76
2023-03-23T22:15:51.191Z,93426.70
2023-03-23T22:16:25.740Z,93428.23
2023-03-23T22:17:00.725Z,93429.60
2023-03-23T22:17:38.161Z,93428.39
2023-03-23T22:18:11.972Z,93430.17
2023-03-23T22:18:46.937Z,93419.96
2023-03-23T22:19:21.400Z,93429.40
2023-03-23T22:19:55.153Z,93425.86
2023-03-23T22:20:29.758Z,93426.48
2023-03-23T22:21:05.466Z,93424.43
2023-03-23T22:21:39.406Z,93424.11
2023-03-23T22:22:13.488Z,93424.44
2023-03-23T22:22:53.772Z,93425.11
2023-03-23T22:23:28.464Z,93424.96
2023-03-23T22:24:04.870Z,93425.52
2023-03-23T22:24:38.736Z,93425.20
2023-03-23T22:25:13.646Z,93423.09
2023-03-23T22:25:47.484Z,93424.30
2023-03-23T22:26:21.396Z,93422.30
2023-03-23T22:26:55.017Z,93419.77
2023-03-23T22:27:28.683Z,93420.05
2023-03-23T22:28:04.865Z,93420.52
2023-03-23T22:28:39.707Z,93418.20
2023-03-23T22:29:15.146Z,93420.10
2023-03-23T22:29:48.827Z,93421.01
2023-03-23T22:30:23.777Z,93418.69
2023-03-23T22:31:06.665Z,93394.24
2023-03-23T22:31:42.120Z,93418.18
2023-03-23T22:32:18.879Z,93414.18
2023-03-23T22:32:52.618Z,93417.17
2023-03-23T22:33:26.322Z,93416.52
2023-03-23T22:34:01.867Z,93417.31
2023-03-23T22:34:35.764Z,93417.52
2023-03-23T22:35:12.697Z,93417.53
2023-03-23T22:35:48.012Z,93418.20
2023-03-23T22:36:24.129Z,93418.95
2023-03-23T22:36:57.872Z,93417.75
2023-03-23T22:37:31.665Z,93417.39
2023-03-23T22:38:05.477Z,93416.13
2023-03-23T22:38:42.769Z,93414.75
2023-03-23T22:39:17.010Z,93415.00
2023-03-23T22:39:50.794Z,93415.51
2023-03-23T22:40:24.489Z,93415.52
2023-03-23T22:40:59.710Z,93407.50
2023-03-23T22:41:37.009Z,93415.25
2023-03-23T22:42:12.360Z,93414.55
2023-03-23T22:42:47.224Z,93413.31
2023-03-23T22:43:20.897Z,93414.59
2023-03-23T22:43:54.650Z,93413.80
2023-03-23T22:44:28.817Z,93412.52
2023-03-23T22:45:03.147Z,93416.59
2023-03-23T22:45:37.236Z,93415.06
2023-03-23T22:46:10.953Z,93413.71
2023-03-23T22:46:45.429Z,93415.92
2023-03-23T22:47:19.076Z,93416.50
2023-03-23T22:47:53.121Z,93416.71
2023-03-23T22:48:28.003Z,93414.14
2023-03-23T22:49:02.077Z,93412.41
2023-03-23T22:49:35.912Z,93411.67
2023-03-23T22:50:10.929Z,93409.09
2023-03-23T22:50:47.376Z,93409.83
2023-03-23T22:51:24.240Z,93408.84
2023-03-23T22:51:58.006Z,93408.36
2023-03-23T22:52:31.797Z,93407.31
2023-03-23T22:53:05.537Z,93410.11
2023-03-23T22:53:39.923Z,93408.27
2023-03-23T22:54:13.784Z,93411.96
2023-03-23T22:54:48.312Z,93410.28
2023-03-23T22:55:22.044Z,93402.61
2023-03-23T22:55:57.807Z,93408.49
2023-03-23T22:56:31.984Z,93404.73
2023-03-23T22:57:05.627Z,93403.91
2023-03-23T22:57:39.363Z,93405.66
2023-03-23T22:58:13.798Z,93404.50
2023-03-23T22:58:47.526Z,93404.03
2023-03-23T22:59:21.731Z,93405.08
2023-03-23T22:59:55.690Z,93404.52
2023-03-23T23:00:29.409Z,93404.25
2023-03-23T23:01:13.870Z,93404.14
2023-03-23T23:01:48.406Z,93403.84
2023-03-23T23:02:24.945Z,93405.68
2023-03-23T23:02:59.094Z,93404.73
2023-03-23T23:03:34.264Z,93406.77
2023-03-23T23:04:08.132Z,93405.46
2023-03-23T23:04:41.994Z,93404.89
2023-03-23T23:05:16.053Z,93404.30
2023-03-23T23:05:51.769Z,93399.01
2023-03-23T23:06:25.959Z,93403.90
2023-03-23T23:07:12.080Z,93400.00
2023-03-23T23:07:46.399Z,93403.69
2023-03-23T23:08:20.814Z,93401.84
2023-03-23T23:08:54.527Z,93400.89
2023-03-23T23:09:28.226Z,93403.48
2023-03-23T23:10:01.875Z,93403.65
2023-03-23T23:10:36.194Z,93389.38
2023-03-23T23:11:12.884Z,93403.08
2023-03-23T23:11:46.882Z,93403.02
2023-03-23T23:12:21.919Z,93405.98
2023-03-23T23:12:55.572Z,93405.64
2023-03-23T23:13:31.853Z,93402.80